»·PEaware :: N221XG KSAN-KVNY

N221XG :: KSAN-KVNY

FLIGHT INFORMATION

Flight Status: Arrived
Operator: Privately registered:
United States
More flights under this callsign
Pilot: Ryan L. (9775)
Aircraft: SOCATA TBM-900
(TBM9)
More flights by this aircraft type
Origin: KSAN San Diego Intl-Lindbergh
United States
Destination: KVNY Van Nuys
United States
More flights between these airports :: More routes between these airports
Route: +CWARD2 SLI SLI341 ELMOO VNY095 VNY
File this flight plan on PilotEdge
Remarks:
Altitude:
(Current/Filed)
8,000ft
Speed:
(Current/Filed)
250kts
Departed: 15-Jan-19 08:55 PM
Arrived: 15-Jan-19 09:40 PM
Distance/Time
Traveled:
110nm/0:44
Distance/Time
To Go:
Arrived

Flight Plot

Page will automatically refresh every two minutes.

Flight plan parsing failed; only flown route is shown


Map Options




Map Legend


Flown Route
Filed Route
Departure Airport
Arrival Airport
Navaid (VOR, NDB)
Fix

Horizontal Profiles

Position Reports

Time Latitude Longitude Heading Altitude Ground
Speed
15-Jan-19 20:44 32.732347 -117.177185 193 20ft 0kts
15-Jan-19 20:45 32.732347 -117.177185 193 20ft 0kts
15-Jan-19 20:46 32.732347 -117.177185 193 20ft 0kts
15-Jan-19 20:47 32.732347 -117.177185 193 20ft 0kts
15-Jan-19 20:48 32.732347 -117.177185 193 20ft 0kts
15-Jan-19 20:49 32.732347 -117.177185 193 20ft 0kts
15-Jan-19 20:50 32.732273 -117.177206 193 20ft 4kts
15-Jan-19 20:51 32.730903 -117.175446 139 20ft 0kts
15-Jan-19 20:52 32.730903 -117.175446 139 20ft 0kts
15-Jan-19 20:53 32.730719 -117.175317 160 20ft 8kts
15-Jan-19 20:54 32.731126 -117.179750 285 20ft 83kts
15-Jan-19 20:55 32.743892 -117.219892 290 1462ft 150kts
15-Jan-19 20:56 32.768535 -117.265949 300 3043ft 192kts
15-Jan-19 20:57 32.797829 -117.315438 300 5607ft 167kts
15-Jan-19 20:58 32.826229 -117.359607 300 7646ft 170kts
15-Jan-19 20:59 32.856295 -117.406470 301 8689ft 209kts
15-Jan-19 21:00 32.895459 -117.467196 302 8026ft 238kts
15-Jan-19 21:01 32.951085 -117.514258 326 8021ft 252kts
15-Jan-19 21:02 33.013535 -117.554438 326 8019ft 254kts
15-Jan-19 21:03 33.076000 -117.594675 326 8018ft 254kts
15-Jan-19 21:04 33.132266 -117.630944 326 8014ft 255kts
15-Jan-19 21:05 33.183965 -117.664361 325 8064ft 254kts
15-Jan-19 21:06 33.246695 -117.704926 325 8066ft 256kts
15-Jan-19 21:07 33.310027 -117.745942 325 8065ft 261kts
15-Jan-19 21:08 33.374501 -117.787793 325 8064ft 263kts
15-Jan-19 21:09 33.439318 -117.829928 325 8064ft 264kts
15-Jan-19 21:10 33.504367 -117.872279 325 8045ft 265kts
15-Jan-19 21:11 33.569622 -117.914854 325 8023ft 266kts
15-Jan-19 21:12 33.634761 -117.957422 325 8010ft 267kts
15-Jan-19 21:13 33.700170 -118.000216 325 8010ft 267kts
15-Jan-19 21:14 33.765888 -118.043330 325 8010ft 268kts
15-Jan-19 21:15 33.839872 -118.059587 352 8012ft 278kts
15-Jan-19 21:16 33.917238 -118.065997 352 7993ft 279kts
15-Jan-19 21:17 33.993101 -118.072369 352 7986ft 266kts
15-Jan-19 21:18 34.064752 -118.078410 351 7992ft 256kts
15-Jan-19 21:19 34.109495 -118.128812 291 7989ft 228kts
15-Jan-19 21:20 34.140320 -118.195550 291 7987ft 227kts
15-Jan-19 21:21 34.159311 -118.265633 271 7988ft 217kts
15-Jan-19 21:22 34.168107 -118.337630 269 7986ft 216kts
15-Jan-19 21:23 34.166280 -118.409472 262 7987ft 212kts
15-Jan-19 21:24 34.164082 -118.481022 262 7987ft 212kts
15-Jan-19 21:25 34.190646 -118.539751 336 7981ft 240kts
15-Jan-19 21:26 34.258299 -118.546405 352 7996ft 243kts
15-Jan-19 21:27 34.326117 -118.552190 352 7997ft 243kts
15-Jan-19 21:28 34.392006 -118.563284 347 7491ft 230kts
15-Jan-19 21:29 34.454895 -118.575220 347 5990ft 228kts
15-Jan-19 21:30 34.494271 -118.547922 122 4995ft 177kts
15-Jan-19 21:31 34.455180 -118.513419 178 5008ft 171kts
15-Jan-19 21:32 34.410108 -118.509421 177 4989ft 151kts
15-Jan-19 21:33 34.371248 -118.505730 177 4846ft 126kts
15-Jan-19 21:34 34.337513 -118.502522 174 3916ft 114kts
15-Jan-19 21:35 34.306403 -118.499564 172 3152ft 112kts
15-Jan-19 21:36 34.277054 -118.496782 171 2440ft 91kts
15-Jan-19 21:37 34.251129 -118.494285 172 1780ft 94kts
15-Jan-19 21:38 34.225001 -118.491874 173 1021ft 94kts
15-Jan-19 21:39 34.205741 -118.490069 182 804ft 23kts
15-Jan-19 21:40 34.203661 -118.490731 196 804ft 0kts
15-Jan-19 21:41 34.202485 -118.491672 295 804ft 4kts
15-Jan-19 21:42 34.202642 -118.491793 357 804ft 0kts

Navigation Log

Ident Type
Flight plan parsing failed, navigation log unavailable